createdAt,value
2019-02-05T00:00:01.451Z,38.13
2019-02-05T00:01:01.524Z,38.12
2019-02-05T00:02:01.880Z,38.12
2019-02-05T00:03:01.816Z,38.11
2019-02-05T00:04:01.788Z,38.18
2019-02-05T00:05:02.275Z,38.17
2019-02-05T00:06:01.436Z,38.1
2019-02-05T00:07:01.962Z,38.11
2019-02-05T00:08:01.660Z,38.09
2019-02-05T00:09:01.774Z,38.09
2019-02-05T00:10:01.939Z,38.1
2019-02-05T00:11:01.446Z,38.09
2019-02-05T00:12:01.899Z,38.15
2019-02-05T00:13:02.535Z,38.11
2019-02-05T00:14:01.399Z,38.12
2019-02-05T00:15:01.472Z,38.1
2019-02-05T00:16:01.794Z,38.13
2019-02-05T00:17:01.435Z,38.13
2019-02-05T00:18:01.719Z,38.1
2019-02-05T00:19:01.638Z,38.15
2019-02-05T00:20:01.506Z,38.14
2019-02-05T00:21:02.170Z,38.15
2019-02-05T00:22:01.945Z,38.13
2019-02-05T00:23:01.470Z,38.15
2019-02-05T00:24:01.620Z,38.13
2019-02-05T00:25:01.733Z,38.15
2019-02-05T00:26:06.689Z,38.13
2019-02-05T00:27:01.431Z,38.13
2019-02-05T00:28:02.092Z,38.09
2019-02-05T00:29:01.431Z,38.15
2019-02-05T00:30:01.908Z,38.15
2019-02-05T00:31:01.608Z,38.1
2019-02-05T00:32:02.094Z,38.11
2019-02-05T00:33:01.815Z,38.13
2019-02-05T00:34:02.102Z,38.1
2019-02-05T00:35:01.808Z,38.12
2019-02-05T00:36:01.981Z,38.09
2019-02-05T00:37:01.871Z,38.14
2019-02-05T00:38:01.440Z,38.14
2019-02-05T00:39:01.452Z,38.16
2019-02-05T00:40:01.973Z,38.17
2019-02-05T00:41:01.527Z,38.13
2019-02-05T00:42:01.783Z,38.13
2019-02-05T00:43:01.422Z,38.1
2019-02-05T00:44:01.834Z,38.13
2019-02-05T00:45:01.625Z,38.08
2019-02-05T00:46:01.643Z,38.13
2019-02-05T00:47:02.006Z,38.16
2019-02-05T00:48:01.810Z,38.14
2019-02-05T00:49:01.486Z,38.17
2019-02-05T00:50:01.875Z,38.15
2019-02-05T00:51:02.278Z,38.1
2019-02-05T00:52:02.095Z,38.1
2019-02-05T00:53:01.738Z,38.12
2019-02-05T00:54:02.280Z,38.18
2019-02-05T00:55:01.660Z,38.14
2019-02-05T00:56:01.468Z,38.11
2019-02-05T00:57:01.634Z,38.11
2019-02-05T00:58:01.472Z,38.08
2019-02-05T00:59:01.490Z,38.11
2019-02-05T01:00:01.741Z,38.12
2019-02-05T01:01:01.566Z,38.13
2019-02-05T01:02:01.698Z,38.12
2019-02-05T01:03:01.949Z,38.11
2019-02-05T01:04:01.958Z,38.17
2019-02-05T01:05:01.832Z,38.17
2019-02-05T01:06:02.605Z,38.11
2019-02-05T01:07:02.204Z,38.18
2019-02-05T01:08:01.648Z,38.17
2019-02-05T01:09:01.449Z,38.15
2019-02-05T01:10:01.856Z,38.12
2019-02-05T01:11:01.915Z,38.15
2019-02-05T01:12:01.503Z,38.11
2019-02-05T01:13:01.803Z,38.12
2019-02-05T01:14:01.978Z,38.15
2019-02-05T01:15:02.056Z,38.12
2019-02-05T01:16:01.520Z,38.1
2019-02-05T01:17:01.821Z,38.1
2019-02-05T01:18:01.763Z,38.13
2019-02-05T01:19:01.716Z,38.15
2019-02-05T01:20:01.620Z,38.14
2019-02-05T01:21:01.757Z,38.11
2019-02-05T01:22:01.848Z,38.11
2019-02-05T01:23:02.317Z,38.14
2019-02-05T01:24:01.890Z,38.14
2019-02-05T01:25:01.878Z,38.1
2019-02-05T01:26:01.418Z,38.12
2019-02-05T01:27:01.904Z,38.13
2019-02-05T01:28:01.493Z,38.1
2019-02-05T01:29:01.337Z,38.1
2019-02-05T01:30:02.166Z,38.17
2019-02-05T01:31:02.272Z,38.14
2019-02-05T01:32:01.694Z,38.14
2019-02-05T01:33:01.404Z,38.15
2019-02-05T01:34:01.763Z,38.09
2019-02-05T01:35:01.460Z,38.13
2019-02-05T01:36:02.097Z,38.17
2019-02-05T01:37:01.782Z,38.14
2019-02-05T01:38:01.461Z,38.15
2019-02-05T01:39:01.463Z,38.16
2019-02-05T01:40:01.418Z,38.14
2019-02-05T01:41:02.300Z,38.12
2019-02-05T01:42:03.086Z,38.12
2019-02-05T01:43:02.403Z,38.17
2019-02-05T01:44:01.802Z,38.15
2019-02-05T01:45:02.446Z,38.16
2019-02-05T01:46:01.560Z,38.15
2019-02-05T01:47:01.616Z,38.13
2019-02-05T01:48:01.777Z,38.16
2019-02-05T01:49:01.340Z,38.16
2019-02-05T01:50:01.508Z,38.1
2019-02-05T01:51:02.284Z,38.09
2019-02-05T01:52:01.652Z,38.11
2019-02-05T01:53:01.492Z,38.15
2019-02-05T01:54:02.134Z,38.07
2019-02-05T01:55:01.777Z,38.12
2019-02-05T01:56:01.462Z,38.09
2019-02-05T01:57:01.839Z,38.09
2019-02-05T01:58:01.709Z,38.09
2019-02-05T01:59:01.607Z,38.15
2019-02-05T02:00:01.720Z,38.16
2019-02-05T02:01:01.737Z,38.13
2019-02-05T02:02:02.084Z,38.14
2019-02-05T02:03:01.858Z,38.15
2019-02-05T02:04:01.364Z,38.17
2019-02-05T02:05:01.510Z,38.1
2019-02-05T02:06:01.897Z,38.09
2019-02-05T02:07:01.439Z,38.16
2019-02-05T02:08:01.723Z,38.13
2019-02-05T02:09:02.354Z,38.15
2019-02-05T02:10:01.465Z,38.12
2019-02-05T02:11:01.875Z,38.12
2019-02-05T02:12:01.729Z,38.12
2019-02-05T02:13:02.096Z,38.11
2019-02-05T02:14:01.633Z,38.12
2019-02-05T02:15:01.739Z,38.12
2019-02-05T02:16:01.820Z,38.13
2019-02-05T02:17:02.294Z,38.11
2019-02-05T02:18:02.082Z,38.17
2019-02-05T02:19:01.795Z,38.15
2019-02-05T02:20:02.043Z,38.09
2019-02-05T02:21:01.685Z,38.13
2019-02-05T02:22:01.377Z,38.12
2019-02-05T02:23:01.371Z,38.12
2019-02-05T02:24:01.459Z,38.1
2019-02-05T02:25:01.838Z,38.1
2019-02-05T02:26:01.605Z,38.12
2019-02-05T02:27:01.294Z,38.1
2019-02-05T02:28:01.441Z,38.13
2019-02-05T02:29:02.117Z,38.12
2019-02-05T02:30:01.473Z,38.02
2019-02-05T02:31:01.462Z,38.08
2019-02-05T02:32:02.132Z,38.14
2019-02-05T02:33:01.853Z,38.14
2019-02-05T02:34:01.738Z,38.09
2019-02-05T02:35:01.752Z,38.1
2019-02-05T02:36:01.477Z,38.07
2019-02-05T02:37:01.516Z,38.11
2019-02-05T02:38:01.473Z,38.08
2019-02-05T02:39:01.728Z,38.1
2019-02-05T02:40:02.358Z,38.09
2019-02-05T02:41:01.675Z,38.1
2019-02-05T02:42:01.827Z,38.01
2019-02-05T02:43:01.799Z,38.08
2019-02-05T02:44:01.331Z,38.02
2019-02-05T02:45:01.752Z,38.05
2019-02-05T02:46:01.785Z,38.11
2019-02-05T02:47:01.352Z,38.08
2019-02-05T02:48:01.798Z,38.06
2019-02-05T02:49:01.581Z,38.07
2019-02-05T02:50:01.401Z,38.1
2019-02-05T02:51:01.567Z,38.1
2019-02-05T02:52:01.982Z,38.09
2019-02-05T02:53:01.713Z,38.11
2019-02-05T02:54:01.836Z,38.1
2019-02-05T02:55:01.390Z,38.08
2019-02-05T02:56:02.062Z,38.11
2019-02-05T02:57:05.173Z,38.13
2019-02-05T02:58:01.788Z,38.06
2019-02-05T02:59:01.773Z,38.03
2019-02-05T03:00:01.516Z,38.07
2019-02-05T03:01:01.591Z,38.04
2019-02-05T03:02:01.372Z,38.03
2019-02-05T03:03:01.804Z,38.06
2019-02-05T03:04:01.961Z,38.09
2019-02-05T03:05:01.472Z,38.09
2019-02-05T03:06:01.913Z,38.06
2019-02-05T03:07:02.087Z,38.12
2019-02-05T03:08:01.787Z,38.1
2019-02-05T03:09:02.160Z,38.01
2019-02-05T03:10:01.812Z,38.03
2019-02-05T03:11:02.089Z,38.06
2019-02-05T03:12:01.414Z,38.09
2019-02-05T03:13:02.289Z,38.03
2019-02-05T03:14:01.423Z,38.06
2019-02-05T03:15:01.902Z,38.03
2019-02-05T03:16:01.395Z,38.03
2019-02-05T03:17:01.451Z,38.04
2019-02-05T03:18:02.018Z,38.06
2019-02-05T03:19:01.674Z,38.04
2019-02-05T03:20:01.467Z,38.07
2019-02-05T03:21:01.557Z,38.03
2019-02-05T03:22:01.345Z,38
2019-02-05T03:23:01.923Z,38.03
2019-02-05T03:24:01.922Z,38.02
2019-02-05T03:25:01.959Z,38.03
2019-02-05T03:26:02.019Z,38.04
2019-02-05T03:27:01.549Z,37.98
2019-02-05T03:28:01.259Z,38.08
2019-02-05T03:29:01.829Z,38.08
2019-02-05T03:30:01.782Z,38.1
2019-02-05T03:31:01.587Z,38.04
2019-02-05T03:32:01.807Z,38.1
2019-02-05T03:33:01.802Z,38.08
2019-02-05T03:34:01.664Z,38.06
2019-02-05T03:35:01.388Z,38.08
2019-02-05T03:36:01.618Z,38.07
2019-02-05T03:37:01.436Z,38.04
2019-02-05T03:38:01.425Z,38.08
2019-02-05T03:39:01.521Z,38.07
2019-02-05T03:40:01.258Z,38.04
2019-02-05T03:41:01.711Z,38.08
2019-02-05T03:42:01.747Z,38.05
2019-02-05T03:43:01.281Z,38.05
2019-02-05T03:44:01.736Z,38.07
2019-02-05T03:45:01.334Z,38.04
2019-02-05T03:46:01.392Z,38.07
2019-02-05T03:47:01.911Z,38.03
2019-02-05T03:48:02.109Z,38.05
2019-02-05T03:49:01.294Z,38.1
2019-02-05T03:50:01.642Z,38.01
2019-02-05T03:51:01.945Z,38.03
2019-02-05T03:52:01.305Z,38.02
2019-02-05T03:53:01.649Z,38.01
2019-02-05T03:54:01.961Z,38.06
2019-02-05T03:55:01.738Z,38.1
2019-02-05T03:56:01.450Z,38.11
2019-02-05T03:57:02.067Z,38.08
2019-02-05T03:58:01.402Z,38.04
2019-02-05T03:59:01.461Z,38.09
2019-02-05T04:00:01.302Z,38.06
2019-02-05T04:01:01.356Z,38.05
2019-02-05T04:02:02.330Z,38.06
2019-02-05T04:03:02.140Z,38.03
2019-02-05T04:04:01.408Z,38.04
2019-02-05T04:05:01.886Z,38.07
2019-02-05T04:06:01.819Z,38.06
2019-02-05T04:07:01.703Z,38.04
2019-02-05T04:08:01.580Z,38.05
2019-02-05T04:09:01.420Z,38.03
2019-02-05T04:10:01.751Z,38.07
2019-02-05T04:11:01.609Z,38.02
2019-02-05T04:12:01.908Z,38.02
2019-02-05T04:13:01.848Z,37.98
2019-02-05T04:14:01.968Z,38.08
2019-02-05T04:15:01.404Z,38.07
2019-02-05T04:16:01.800Z,38
2019-02-05T04:17:01.823Z,38.08
2019-02-05T04:18:01.699Z,38.05
2019-02-05T04:19:01.843Z,37.99
2019-02-05T04:20:01.776Z,38.09
2019-02-05T04:21:01.322Z,38.07
2019-02-05T04:22:01.806Z,38.04
2019-02-05T04:23:02.171Z,38.05
2019-02-05T04:24:01.562Z,37.98
2019-02-05T04:25:02.593Z,38.04
2019-02-05T04:26:01.689Z,38.04
2019-02-05T04:27:01.367Z,38.07
2019-02-05T04:28:01.453Z,38.06
2019-02-05T04:29:02.127Z,38.06
2019-02-05T04:30:01.679Z,38.12
2019-02-05T04:31:01.278Z,38.1
2019-02-05T04:32:01.936Z,37.98
2019-02-05T04:33:01.817Z,38.04
2019-02-05T04:34:02.328Z,38.04
2019-02-05T04:35:01.672Z,38.05
2019-02-05T04:36:01.937Z,38.06
2019-02-05T04:37:02.544Z,38.01
2019-02-05T04:38:01.737Z,38
2019-02-05T04:39:01.800Z,37.97
2019-02-05T04:40:01.785Z,37.99
2019-02-05T04:41:01.688Z,38.06
2019-02-05T04:42:01.954Z,38
2019-02-05T04:43:01.583Z,38.02
2019-02-05T04:44:01.443Z,38.04
2019-02-05T04:45:01.285Z,38.01
2019-02-05T04:46:01.414Z,38.04
2019-02-05T04:47:03.227Z,38.06
2019-02-05T04:48:01.739Z,38.1
2019-02-05T04:49:01.756Z,38.09
2019-02-05T04:50:01.366Z,38.08
2019-02-05T04:51:01.449Z,38.12
2019-02-05T04:52:01.814Z,38.14
2019-02-05T04:53:01.296Z,38.05
2019-02-05T04:54:01.571Z,38.05
2019-02-05T04:55:01.478Z,38.01
2019-02-05T04:56:01.749Z,38.01
2019-02-05T04:57:01.753Z,37.99
2019-02-05T04:58:01.972Z,38.05
2019-02-05T04:59:03.255Z,38.1
2019-02-05T05:00:01.549Z,38.12
2019-02-05T05:01:01.312Z,38.12
2019-02-05T05:02:01.466Z,38.22
2019-02-05T05:03:02.047Z,38.15
2019-02-05T05:04:01.506Z,38.17
2019-02-05T05:05:01.310Z,38.12
2019-02-05T05:06:02.020Z,38.2
2019-02-05T05:07:01.312Z,38.25
2019-02-05T05:08:01.377Z,38.19
2019-02-05T05:09:01.968Z,38.26
2019-02-05T05:10:01.344Z,38.2
2019-02-05T05:11:01.594Z,38.22
2019-02-05T05:12:01.698Z,38.18
2019-02-05T05:13:01.339Z,38.18
2019-02-05T05:14:01.795Z,38.17
2019-02-05T05:15:01.705Z,38.18
2019-02-05T05:16:01.408Z,38.16
2019-02-05T05:17:01.298Z,38.09
2019-02-05T05:18:02.050Z,38.1
2019-02-05T05:19:01.409Z,38.04
2019-02-05T05:20:01.468Z,38.06
2019-02-05T05:21:01.754Z,38.07
2019-02-05T05:22:01.422Z,38.06
2019-02-05T05:23:01.349Z,38.04
2019-02-05T05:24:01.514Z,38
2019-02-05T05:25:01.312Z,37.99
2019-02-05T05:26:01.524Z,38.02
2019-02-05T05:27:01.778Z,38
2019-02-05T05:28:10.545Z,38
2019-02-05T05:29:01.593Z,37.94
2019-02-05T05:30:01.502Z,37.99
2019-02-05T05:31:01.962Z,37.95
2019-02-05T05:32:01.506Z,37.97
2019-02-05T05:33:02.261Z,37.92
2019-02-05T05:34:01.277Z,37.97
2019-02-05T05:35:01.823Z,37.9
2019-02-05T05:36:01.466Z,37.94
2019-02-05T05:37:01.366Z,37.93
2019-02-05T05:38:01.745Z,37.91
2019-02-05T05:39:02.062Z,37.92
2019-02-05T05:40:01.563Z,37.96
2019-02-05T05:41:02.340Z,37.91
2019-02-05T05:42:01.790Z,37.99
2019-02-05T05:43:01.511Z,37.93
2019-02-05T05:44:01.521Z,37.89
2019-02-05T05:45:01.545Z,37.94
2019-02-05T05:46:01.812Z,37.94
2019-02-05T05:47:01.802Z,37.92
2019-02-05T05:48:01.958Z,37.91
2019-02-05T05:49:01.830Z,37.9
2019-02-05T05:50:01.419Z,37.91
2019-02-05T05:51:01.549Z,37.89
2019-02-05T05:52:01.716Z,37.9
2019-02-05T05:53:01.755Z,37.91
2019-02-05T05:54:01.233Z,37.91
2019-02-05T05:55:01.598Z,37.89
2019-02-05T05:56:01.784Z,37.89
2019-02-05T05:57:01.479Z,37.9
2019-02-05T05:58:03.203Z,37.88
2019-02-05T05:59:02.244Z,37.87
2019-02-05T06:00:03.057Z,37.91
2019-02-05T06:01:02.946Z,37.9
2019-02-05T06:02:01.727Z,37.88
2019-02-05T06:03:02.271Z,37.86
2019-02-05T06:04:03.319Z,37.87
2019-02-05T06:05:01.448Z,37.88
2019-02-05T06:06:01.381Z,37.82
2019-02-05T06:07:01.358Z,37.85
2019-02-05T06:08:01.539Z,37.85
2019-02-05T06:09:01.700Z,37.87
2019-02-05T06:10:01.914Z,37.84
2019-02-05T06:11:01.482Z,37.86
2019-02-05T06:12:01.763Z,37.83
2019-02-05T06:13:01.531Z,37.82
2019-02-05T06:14:01.907Z,37.83
2019-02-05T06:15:01.646Z,37.87
2019-02-05T06:16:01.739Z,37.51
2019-02-05T06:17:01.843Z,37.45
2019-02-05T06:18:01.768Z,37.55
2019-02-05T06:19:01.607Z,37.61
2019-02-05T06:20:01.824Z,37.62
2019-02-05T06:21:01.187Z,37.71
2019-02-05T06:22:01.293Z,37.68
2019-02-05T06:23:01.440Z,37.68
2019-02-05T06:24:01.584Z,37.64
2019-02-05T06:25:01.713Z,37.71
2019-02-05T06:26:01.593Z,37.86
2019-02-05T06:27:01.894Z,38.08
2019-02-05T06:28:01.302Z,38.2
2019-02-05T06:29:01.535Z,38.23
2019-02-05T06:30:02.017Z,38.21
2019-02-05T06:31:01.417Z,38.18
2019-02-05T06:32:01.337Z,38.2
2019-02-05T06:33:01.973Z,38.25
2019-02-05T06:34:01.235Z,38.25
2019-02-05T06:35:01.333Z,38.67
2019-02-05T06:36:01.180Z,38.34
2019-02-05T06:37:01.398Z,38.14
2019-02-05T06:38:01.624Z,38.06
2019-02-05T06:39:01.535Z,38.08
2019-02-05T06:40:01.615Z,38.07
2019-02-05T06:41:01.467Z,38.02
2019-02-05T06:42:02.758Z,37.98
2019-02-05T06:43:01.320Z,37.98
2019-02-05T06:44:01.488Z,38.07
2019-02-05T06:45:01.214Z,38.15
2019-02-05T06:46:01.392Z,37.84
2019-02-05T06:47:01.242Z,37.86
2019-02-05T06:48:01.374Z,37.81
2019-02-05T06:49:01.661Z,37.82
2019-02-05T06:50:01.198Z,37.81
2019-02-05T06:51:01.466Z,37.79
2019-02-05T06:52:01.337Z,37.78
2019-02-05T06:53:01.203Z,37.81
2019-02-05T06:54:01.421Z,37.79
2019-02-05T06:55:01.824Z,37.79
2019-02-05T06:56:01.683Z,37.79
2019-02-05T06:57:01.340Z,37.75
2019-02-05T06:58:01.406Z,37.76
2019-02-05T06:59:01.421Z,37.74
2019-02-05T07:00:01.248Z,37.73
2019-02-05T07:01:01.610Z,37.71
2019-02-05T07:02:01.316Z,37.73
2019-02-05T07:03:01.416Z,37.7
2019-02-05T07:04:01.943Z,37.71
2019-02-05T07:05:01.794Z,37.71
2019-02-05T07:06:01.685Z,37.69
2019-02-05T07:07:01.999Z,37.66
2019-02-05T07:08:01.573Z,37.66
2019-02-05T07:09:01.312Z,37.65
2019-02-05T07:10:01.831Z,37.63
2019-02-05T07:11:01.496Z,37.62
2019-02-05T07:12:01.372Z,37.63
2019-02-05T07:13:03.348Z,37.63
2019-02-05T07:14:01.249Z,37.59
2019-02-05T07:15:01.958Z,37.6
2019-02-05T07:16:01.974Z,37.58
2019-02-05T07:17:02.494Z,37.61
2019-02-05T07:18:01.539Z,37.62
2019-02-05T07:19:01.523Z,37.6
2019-02-05T07:20:01.365Z,37.59
2019-02-05T07:21:01.285Z,37.62
2019-02-05T07:22:01.755Z,37.63
2019-02-05T07:23:01.925Z,37.62
2019-02-05T07:24:01.713Z,37.63
2019-02-05T07:25:03.063Z,37.54
2019-02-05T07:26:01.294Z,37.64
2019-02-05T07:27:01.290Z,37.62
2019-02-05T07:28:01.447Z,37.6
2019-02-05T07:29:02.375Z,37.62
2019-02-05T07:30:01.863Z,37.67
2019-02-05T07:31:01.504Z,37.66
2019-02-05T07:32:01.989Z,37.66
2019-02-05T07:33:01.766Z,37.65
2019-02-05T07:34:01.481Z,37.66
2019-02-05T07:35:01.489Z,37.68
2019-02-05T07:36:01.269Z,37.64
2019-02-05T07:37:01.463Z,37.67
2019-02-05T07:38:01.642Z,37.64
2019-02-05T07:39:02.351Z,37.64
2019-02-05T07:40:01.955Z,37.53
2019-02-05T07:41:02.303Z,37.63
2019-02-05T07:42:01.462Z,37.63
2019-02-05T07:43:01.458Z,37.65
2019-02-05T07:44:01.369Z,37.64
2019-02-05T07:45:01.653Z,37.58
2019-02-05T07:46:01.685Z,37.65
2019-02-05T07:47:01.364Z,37.59
2019-02-05T07:48:01.291Z,37.61
2019-02-05T07:49:01.245Z,37.6
2019-02-05T07:50:01.248Z,37.54
2019-02-05T07:51:01.241Z,37.61
2019-02-05T07:52:01.387Z,37.57
2019-02-05T07:53:01.336Z,37.56
2019-02-05T07:54:01.426Z,37.57
2019-02-05T07:55:01.184Z,37.58
2019-02-05T07:56:01.318Z,37.56
2019-02-05T07:57:01.711Z,37.55
2019-02-05T07:58:01.176Z,37.56
2019-02-05T07:59:10.630Z,37.53
2019-02-05T08:00:01.527Z,37.54
2019-02-05T08:01:02.095Z,37.52
2019-02-05T08:02:03.432Z,37.53
2019-02-05T08:03:01.468Z,37.51
2019-02-05T08:04:01.513Z,37.49
2019-02-05T08:05:02.003Z,37.49
2019-02-05T08:06:01.325Z,37.44
2019-02-05T08:07:01.521Z,37.47
2019-02-05T08:08:01.940Z,37.47
2019-02-05T08:09:01.178Z,37.45
2019-02-05T08:10:01.342Z,37.46
2019-02-05T08:11:01.181Z,37.47
2019-02-05T08:12:01.319Z,37.42
2019-02-05T08:13:01.326Z,37.46
2019-02-05T08:14:01.209Z,37.44
2019-02-05T08:15:02.126Z,37.4
2019-02-05T08:16:01.587Z,37.39
2019-02-05T08:17:01.880Z,37.39
2019-02-05T08:18:01.104Z,37.37
2019-02-05T08:19:01.793Z,37.37
2019-02-05T08:20:01.719Z,37.34
2019-02-05T08:21:01.505Z,37.38
2019-02-05T08:22:02.147Z,37.36
2019-02-05T08:23:01.742Z,37.42
2019-02-05T08:24:01.258Z,37.33
2019-02-05T08:25:01.419Z,37.32
2019-02-05T08:26:01.555Z,37.34
2019-02-05T08:27:01.441Z,37.35
2019-02-05T08:28:01.337Z,37.41
2019-02-05T08:29:01.784Z,37.31
2019-02-05T08:30:01.482Z,37.33
2019-02-05T08:31:01.359Z,37.27
2019-02-05T08:32:01.336Z,37.31
2019-02-05T08:33:01.408Z,37.3
2019-02-05T08:34:03.561Z,37.28
2019-02-05T08:35:01.332Z,37.36
2019-02-05T08:36:01.322Z,37.25
2019-02-05T08:37:01.262Z,37.29
2019-02-05T08:38:01.574Z,37.29
2019-02-05T08:39:01.275Z,37.28
2019-02-05T08:40:01.519Z,37.18
2019-02-05T08:41:02.021Z,37.29
2019-02-05T08:42:01.649Z,37.25
2019-02-05T08:43:01.354Z,37.25
2019-02-05T08:44:01.583Z,37.24
2019-02-05T08:45:01.168Z,37.29
2019-02-05T08:46:01.570Z,37.33
2019-02-05T08:47:01.772Z,37.29
2019-02-05T08:48:01.586Z,37.18
2019-02-05T08:49:01.251Z,37.24
2019-02-05T08:50:01.365Z,37.23
2019-02-05T08:51:01.636Z,37.5
2019-02-05T08:52:01.678Z,37.47
2019-02-05T08:53:02.301Z,37.46
2019-02-05T08:54:01.523Z,37.51
2019-02-05T08:55:01.405Z,37.58
2019-02-05T08:56:01.468Z,37.58
2019-02-05T08:57:01.342Z,37.56
2019-02-05T08:58:01.585Z,37.62
2019-02-05T08:59:02.281Z,37.61
2019-02-05T09:00:01.700Z,37.63
2019-02-05T09:01:01.479Z,37.59
2019-02-05T09:02:01.410Z,37.59
2019-02-05T09:03:01.313Z,37.67
2019-02-05T09:04:01.535Z,37.52
2019-02-05T09:05:01.821Z,37.39
2019-02-05T09:06:01.509Z,37.34
2019-02-05T09:07:01.287Z,37.33
2019-02-05T09:08:02.834Z,37.14
2019-02-05T09:09:01.293Z,37.04
2019-02-05T09:10:01.339Z,36.92
2019-02-05T09:11:01.310Z,36.9
2019-02-05T09:12:01.330Z,36.75
2019-02-05T09:13:01.999Z,36.83
2019-02-05T09:14:12.382Z,36.73
2019-02-05T09:15:01.368Z,36.75
2019-02-05T09:16:01.404Z,36.71
2019-02-05T09:17:01.721Z,36.62
2019-02-05T09:18:01.397Z,36.65
2019-02-05T09:19:01.522Z,36.66
2019-02-05T09:20:02.046Z,36.64
2019-02-05T09:21:01.404Z,36.62
2019-02-05T09:22:01.401Z,36.59
2019-02-05T09:23:01.379Z,36.65
2019-02-05T09:24:01.551Z,36.74
2019-02-05T09:25:01.365Z,36.73
2019-02-05T09:26:01.680Z,36.78
2019-02-05T09:27:01.285Z,36.83
2019-02-05T09:28:02.104Z,36.89
2019-02-05T09:29:01.274Z,36.92
2019-02-05T09:30:01.387Z,36.92
2019-02-05T09:31:01.564Z,37
2019-02-05T09:32:01.775Z,36.97
2019-02-05T09:33:01.144Z,37
2019-02-05T09:34:01.244Z,37.04
2019-02-05T09:35:01.546Z,37.03
2019-02-05T09:36:01.419Z,37.05
2019-02-05T09:37:01.261Z,37.02
2019-02-05T09:38:01.782Z,37
2019-02-05T09:39:01.111Z,36.98
2019-02-05T09:40:01.273Z,37.01
2019-02-05T09:41:01.534Z,37.05
2019-02-05T09:42:01.489Z,37.04
2019-02-05T09:43:03.543Z,37.07
2019-02-05T09:44:01.266Z,37.03
2019-02-05T09:45:01.421Z,37.05
2019-02-05T09:46:01.234Z,37.11
2019-02-05T09:47:01.334Z,37.09
2019-02-05T09:48:01.263Z,37.1
2019-02-05T09:49:01.281Z,37.08
2019-02-05T09:50:01.650Z,37.11
2019-02-05T09:51:01.551Z,37.09
2019-02-05T09:52:01.724Z,37.07
2019-02-05T09:53:01.401Z,37.12
2019-02-05T09:54:01.113Z,37.08
2019-02-05T09:55:01.234Z,37.15
2019-02-05T09:56:01.352Z,37.14
2019-02-05T09:57:02.313Z,37.15
2019-02-05T09:58:01.858Z,37.16
2019-02-05T09:59:01.304Z,37.14
2019-02-05T10:00:01.254Z,37.15
2019-02-05T10:01:01.470Z,37.13
2019-02-05T10:02:01.295Z,37.13
2019-02-05T10:03:01.265Z,37.06
2019-02-05T10:04:02.309Z,37.17
2019-02-05T10:05:01.334Z,37.17
2019-02-05T10:06:01.447Z,37.13
2019-02-05T10:07:01.737Z,37.13
2019-02-05T10:08:01.714Z,37.17
2019-02-05T10:09:01.236Z,37.11
2019-02-05T10:10:01.694Z,37.14
2019-02-05T10:11:01.565Z,37.12
2019-02-05T10:12:01.601Z,37.16
2019-02-05T10:13:01.472Z,37.17
2019-02-05T10:14:01.405Z,37.13
2019-02-05T10:15:01.509Z,37.14
2019-02-05T10:16:01.691Z,37.14
2019-02-05T10:17:01.736Z,37.15
2019-02-05T10:18:01.299Z,37.13
2019-02-05T10:19:01.858Z,37.18
2019-02-05T10:20:01.773Z,37.13
2019-02-05T10:21:01.280Z,37.19
2019-02-05T10:22:01.292Z,37.17
2019-02-05T10:23:01.329Z,37.15
2019-02-05T10:24:01.315Z,37.11
2019-02-05T10:25:01.682Z,37.15
2019-02-05T10:26:01.446Z,37.12
2019-02-05T10:27:01.800Z,37.2
2019-02-05T10:28:01.399Z,37.17
2019-02-05T10:29:01.519Z,37.16
2019-02-05T10:30:01.271Z,37.15
2019-02-05T10:31:01.341Z,37.11
2019-02-05T10:32:01.143Z,37.12
2019-02-05T10:33:01.606Z,37.18
2019-02-05T10:34:01.759Z,37.17
2019-02-05T10:35:01.517Z,37.17
2019-02-05T10:36:01.763Z,37.17
2019-02-05T10:37:01.562Z,37.13
2019-02-05T10:38:01.488Z,37.14
2019-02-05T10:39:01.344Z,37.13
2019-02-05T10:40:01.375Z,37.18
2019-02-05T10:41:01.545Z,37.14
2019-02-05T10:42:01.500Z,37.17
2019-02-05T10:43:01.878Z,37.14
2019-02-05T10:44:03.049Z,37.15
2019-02-05T10:45:01.432Z,37.16
2019-02-05T10:46:01.844Z,37.14
2019-02-05T10:47:01.427Z,37.17
2019-02-05T10:48:01.376Z,37.16
2019-02-05T10:49:03.712Z,37.21
2019-02-05T10:50:01.414Z,37.18
2019-02-05T10:51:01.310Z,37.15
2019-02-05T10:52:01.844Z,37.16
2019-02-05T10:53:01.360Z,37.19
2019-02-05T10:54:01.228Z,37.17
2019-02-05T10:55:03.230Z,37.17
2019-02-05T10:56:01.916Z,37.2
2019-02-05T10:57:01.706Z,37.13
2019-02-05T10:58:01.237Z,37.14
2019-02-05T10:59:01.636Z,37.18
2019-02-05T11:00:09.339Z,37.15
2019-02-05T11:01:01.282Z,37.16
2019-02-05T11:02:02.303Z,37.13
2019-02-05T11:03:01.354Z,37.17
2019-02-05T11:04:01.729Z,37.15
2019-02-05T11:05:01.253Z,37.19
2019-02-05T11:06:01.491Z,37.18
2019-02-05T11:07:01.489Z,37.17
2019-02-05T11:08:01.572Z,37.16
2019-02-05T11:09:01.209Z,37.18
2019-02-05T11:10:01.495Z,37.16
2019-02-05T11:11:03.459Z,37.17
2019-02-05T11:12:02.224Z,37.21
2019-02-05T11:13:01.444Z,37.14
2019-02-05T11:14:01.312Z,37.19
2019-02-05T11:15:01.748Z,37.2
2019-02-05T11:16:01.939Z,37.17
2019-02-05T11:17:01.717Z,37.18
2019-02-05T11:18:03.306Z,37.16
2019-02-05T11:19:01.277Z,37.19
2019-02-05T11:20:01.360Z,37.18
2019-02-05T11:21:04.660Z,37.18
2019-02-05T11:22:01.534Z,37.18
2019-02-05T11:23:01.358Z,37.2
2019-02-05T11:24:01.032Z,37.18
2019-02-05T11:25:01.478Z,37.22
2019-02-05T11:26:01.313Z,37.17
2019-02-05T11:27:01.016Z,37.24
2019-02-05T11:28:01.635Z,37.3
2019-02-05T11:29:01.541Z,37.72
2019-02-05T11:30:01.325Z,37.6
2019-02-05T11:31:01.712Z,37.55
2019-02-05T11:32:01.123Z,37.59
2019-02-05T11:33:01.877Z,37.56
2019-02-05T11:34:01.336Z,37.63
2019-02-05T11:35:02.017Z,37.6
2019-02-05T11:36:01.466Z,37.59
2019-02-05T11:37:01.262Z,37.7
2019-02-05T11:38:01.414Z,37.61
2019-02-05T11:39:01.100Z,37.59
2019-02-05T11:40:01.825Z,37.62
2019-02-05T11:41:01.498Z,37.59
2019-02-05T11:42:01.146Z,37.55
2019-02-05T11:43:01.425Z,37.51
2019-02-05T11:44:01.662Z,37.5
2019-02-05T11:45:02.355Z,37.57
2019-02-05T11:46:01.526Z,37.51
2019-02-05T11:47:04.145Z,37.59
2019-02-05T11:48:01.474Z,37.6
2019-02-05T11:49:01.309Z,37.66
2019-02-05T11:50:02.295Z,37.59
2019-02-05T11:51:01.134Z,37.51
2019-02-05T11:52:01.863Z,37.53
2019-02-05T11:53:00.932Z,37.5
2019-02-05T11:54:01.269Z,37.45
2019-02-05T11:55:02.143Z,37.48
2019-02-05T11:56:02.010Z,37.41
2019-02-05T11:57:01.320Z,37.31
2019-02-05T11:58:01.711Z,37.26
2019-02-05T11:59:01.502Z,37.28
2019-02-05T12:00:01.527Z,37.23
2019-02-05T12:01:02.047Z,37.26
2019-02-05T12:02:02.088Z,37.29
2019-02-05T12:03:01.752Z,37.27
2019-02-05T12:04:01.851Z,37.27
2019-02-05T12:05:02.367Z,37.27
2019-02-05T12:06:01.600Z,37.32
2019-02-05T12:07:01.883Z,37.35
2019-02-05T12:08:03.019Z,37.31
2019-02-05T12:09:01.139Z,37.2
2019-02-05T12:10:02.101Z,37.15
2019-02-05T12:11:02.424Z,37.14
2019-02-05T12:12:01.403Z,37.13
2019-02-05T12:13:01.281Z,37.1
2019-02-05T12:14:01.921Z,37.08
2019-02-05T12:15:01.077Z,37.27
2019-02-05T12:16:01.924Z,37.43
2019-02-05T12:17:01.479Z,37.33
2019-02-05T12:18:01.729Z,37.42
2019-02-05T12:19:03.181Z,37.45
2019-02-05T12:20:01.173Z,37.36
2019-02-05T12:21:01.246Z,37.17
2019-02-05T12:22:01.280Z,37.13
2019-02-05T12:23:01.473Z,37.13
2019-02-05T12:24:01.631Z,37.1
2019-02-05T12:25:01.281Z,37.13
2019-02-05T12:26:01.890Z,37.17
2019-02-05T12:27:01.510Z,37.17
2019-02-05T12:28:01.250Z,37.3
2019-02-05T12:29:01.065Z,37.32
2019-02-05T12:30:01.839Z,37.32
2019-02-05T12:31:01.885Z,37.25
2019-02-05T12:32:02.137Z,37.41
2019-02-05T12:33:02.147Z,37.36
2019-02-05T12:34:01.555Z,37.35
2019-02-05T12:35:01.685Z,37.24
2019-02-05T12:36:01.242Z,37.57
2019-02-05T12:37:01.343Z,37.09
2019-02-05T12:38:01.520Z,37.11
2019-02-05T12:39:01.941Z,37.07
2019-02-05T12:40:01.756Z,37.07
2019-02-05T12:41:01.313Z,37.08
2019-02-05T12:42:02.946Z,37.1
2019-02-05T12:43:01.310Z,37.1
2019-02-05T12:44:01.853Z,37.06
2019-02-05T12:45:01.156Z,37.07
2019-02-05T12:46:01.796Z,37.06
2019-02-05T12:47:01.385Z,37.11
2019-02-05T12:48:01.464Z,37.06
2019-02-05T12:49:01.660Z,37.07
2019-02-05T12:50:01.578Z,37.11
2019-02-05T12:51:01.653Z,37.11
2019-02-05T12:52:01.290Z,37.08
2019-02-05T12:53:01.150Z,37.1
2019-02-05T12:54:01.640Z,37.08
2019-02-05T12:55:16.223Z,37.1